sensor_id;sensor_type;location;lat;lon;timestamp;temperature;humidity
22635;DHT22;11484;50.858;4.384;2022-08-25T00:02:05;25.70;96.00
22635;DHT22;11484;50.858;4.384;2022-08-25T00:04:32;25.70;96.20
22635;DHT22;11484;50.858;4.384;2022-08-25T00:07:03;25.60;96.30
22635;DHT22;11484;50.858;4.384;2022-08-25T00:09:31;25.60;96.50
22635;DHT22;11484;50.858;4.384;2022-08-25T00:11:58;25.60;97.10
22635;DHT22;11484;50.858;4.384;2022-08-25T00:14:29;25.50;96.90
22635;DHT22;11484;50.858;4.384;2022-08-25T00:16:55;25.50;97.10
22635;DHT22;11484;50.858;4.384;2022-08-25T00:19:25;25.40;97.40
22635;DHT22;11484;50.858;4.384;2022-08-25T00:21:51;25.40;97.40
22635;DHT22;11484;50.858;4.384;2022-08-25T00:24:19;25.30;97.80
22635;DHT22;11484;50.858;4.384;2022-08-25T00:26:49;25.20;98.10
22635;DHT22;11484;50.858;4.384;2022-08-25T00:29:17;25.10;98.30
22635;DHT22;11484;50.858;4.384;2022-08-25T00:31:44;25.10;98.50
22635;DHT22;11484;50.858;4.384;2022-08-25T00:34:15;25.10;98.80
22635;DHT22;11484;50.858;4.384;2022-08-25T00:36:43;24.90;99.20
22635;DHT22;11484;50.858;4.384;2022-08-25T00:39:10;24.90;99.60
22635;DHT22;11484;50.858;4.384;2022-08-25T00:41:39;24.80;99.90
22635;DHT22;11484;50.858;4.384;2022-08-25T00:44:07;24.60;99.90
22635;DHT22;11484;50.858;4.384;2022-08-25T00:46:37;24.70;99.90
22635;DHT22;11484;50.858;4.384;2022-08-25T00:49:18;24.60;99.90
22635;DHT22;11484;50.858;4.384;2022-08-25T00:54:15;24.50;99.90
22635;DHT22;11484;50.858;4.384;2022-08-25T00:56:44;24.40;99.90
22635;DHT22;11484;50.858;4.384;2022-08-25T00:59:11;24.40;99.90
22635;DHT22;11484;50.858;4.384;2022-08-25T01:01:39;24.40;99.90
22635;DHT22;11484;50.858;4.384;2022-08-25T01:04:05;24.40;99.90
22635;DHT22;11484;50.858;4.384;2022-08-25T01:06:34;24.50;99.90
22635;DHT22;11484;50.858;4.384;2022-08-25T01:09:02;24.50;99.90
22635;DHT22;11484;50.858;4.384;2022-08-25T01:11:28;24.60;99.90
22635;DHT22;11484;50.858;4.384;2022-08-25T01:13:56;24.60;99.90
22635;DHT22;11484;50.858;4.384;2022-08-25T01:16:24;24.70;99.90
22635;DHT22;11484;50.858;4.384;2022-08-25T01:18:53;24.80;99.90
22635;DHT22;11484;50.858;4.384;2022-08-25T01:21:27;24.80;99.90
22635;DHT22;11484;50.858;4.384;2022-08-25T01:23:54;24.70;99.90
22635;DHT22;11484;50.858;4.384;2022-08-25T01:26:28;24.70;99.90
22635;DHT22;11484;50.858;4.384;2022-08-25T01:28:55;24.80;99.90
22635;DHT22;11484;50.858;4.384;2022-08-25T01:31:39;24.70;99.90
22635;DHT22;11484;50.858;4.384;2022-08-25T01:34:10;24.70;99.90
22635;DHT22;11484;50.858;4.384;2022-08-25T01:36:38;24.70;99.90
22635;DHT22;11484;50.858;4.384;2022-08-25T01:39:04;24.70;99.90
22635;DHT22;11484;50.858;4.384;2022-08-25T01:44:02;24.70;99.90
22635;DHT22;11484;50.858;4.384;2022-08-25T01:46:33;24.70;99.90
22635;DHT22;11484;50.858;4.384;2022-08-25T01:49:09;24.60;99.90
22635;DHT22;11484;50.858;4.384;2022-08-25T01:51:55;24.60;99.90
22635;DHT22;11484;50.858;4.384;2022-08-25T01:54:23;24.60;99.90
22635;DHT22;11484;50.858;4.384;2022-08-25T01:56:51;24.60;99.90
22635;DHT22;11484;50.858;4.384;2022-08-25T01:59:20;24.50;99.90
22635;DHT22;11484;50.858;4.384;2022-08-25T02:01:46;24.50;99.90
22635;DHT22;11484;50.858;4.384;2022-08-25T02:04:13;24.50;99.90
22635;DHT22;11484;50.858;4.384;2022-08-25T02:06:41;24.50;99.90
22635;DHT22;11484;50.858;4.384;2022-08-25T02:09:10;24.50;99.90
22635;DHT22;11484;50.858;4.384;2022-08-25T02:11:37;24.40;99.90
22635;DHT22;11484;50.858;4.384;2022-08-25T02:14:04;24.40;99.90
22635;DHT22;11484;50.858;4.384;2022-08-25T02:16:33;24.40;99.90
22635;DHT22;11484;50.858;4.384;2022-08-25T02:18:59;24.40;99.90
22635;DHT22;11484;50.858;4.384;2022-08-25T02:21:25;24.40;99.90
22635;DHT22;11484;50.858;4.384;2022-08-25T02:23:51;24.40;99.90
22635;DHT22;11484;50.858;4.384;2022-08-25T02:26:18;24.40;99.90
22635;DHT22;11484;50.858;4.384;2022-08-25T02:28:46;24.30;99.90
22635;DHT22;11484;50.858;4.384;2022-08-25T02:31:12;24.30;99.90
22635;DHT22;11484;50.858;4.384;2022-08-25T02:33:40;24.30;99.90
22635;DHT22;11484;50.858;4.384;2022-08-25T02:36:06;24.30;99.90
22635;DHT22;11484;50.858;4.384;2022-08-25T02:38:33;24.30;99.90
22635;DHT22;11484;50.858;4.384;2022-08-25T02:40:59;24.30;99.90
22635;DHT22;11484;50.858;4.384;2022-08-25T02:43:26;24.30;99.90
22635;DHT22;11484;50.858;4.384;2022-08-25T02:45:53;24.30;99.90
22635;DHT22;11484;50.858;4.384;2022-08-25T02:48:21;24.30;99.90
22635;DHT22;11484;50.858;4.384;2022-08-25T02:50:49;24.30;99.90
22635;DHT22;11484;50.858;4.384;2022-08-25T02:53:19;24.20;99.90
22635;DHT22;11484;50.858;4.384;2022-08-25T02:55:45;24.10;99.90
22635;DHT22;11484;50.858;4.384;2022-08-25T02:58:12;24.10;99.90
22635;DHT22;11484;50.858;4.384;2022-08-25T03:00:40;24.10;99.90
22635;DHT22;11484;50.858;4.384;2022-08-25T03:03:06;24.10;99.90
22635;DHT22;11484;50.858;4.384;2022-08-25T03:05:32;24.10;99.90
22635;DHT22;11484;50.858;4.384;2022-08-25T03:07:59;24.00;99.90
22635;DHT22;11484;50.858;4.384;2022-08-25T03:10:25;24.10;99.90
22635;DHT22;11484;50.858;4.384;2022-08-25T03:12:52;24.10;99.90
22635;DHT22;11484;50.858;4.384;2022-08-25T03:15:18;24.10;99.90
22635;DHT22;11484;50.858;4.384;2022-08-25T03:17:45;24.00;99.90
22635;DHT22;11484;50.858;4.384;2022-08-25T03:20:14;24.00;99.90
22635;DHT22;11484;50.858;4.384;2022-08-25T03:22:43;23.90;99.90
22635;DHT22;11484;50.858;4.384;2022-08-25T03:25:09;24.00;99.90
22635;DHT22;11484;50.858;4.384;2022-08-25T03:27:55;23.90;99.90
22635;DHT22;11484;50.858;4.384;2022-08-25T03:30:21;23.90;99.90
22635;DHT22;11484;50.858;4.384;2022-08-25T03:32:46;23.90;99.90
22635;DHT22;11484;50.858;4.384;2022-08-25T03:35:18;23.80;98.80
22635;DHT22;11484;50.858;4.384;2022-08-25T03:37:45;23.80;97.90
22635;DHT22;11484;50.858;4.384;2022-08-25T03:40:12;23.80;97.10
22635;DHT22;11484;50.858;4.384;2022-08-25T03:42:43;23.80;97.00
22635;DHT22;11484;50.858;4.384;2022-08-25T03:45:10;23.80;96.80
22635;DHT22;11484;50.858;4.384;2022-08-25T03:47:39;23.80;96.30
22635;DHT22;11484;50.858;4.384;2022-08-25T03:50:07;23.70;96.00
22635;DHT22;11484;50.858;4.384;2022-08-25T03:52:36;23.90;95.00
22635;DHT22;11484;50.858;4.384;2022-08-25T03:55:05;23.80;94.50
22635;DHT22;11484;50.858;4.384;2022-08-25T03:57:33;23.80;94.30
22635;DHT22;11484;50.858;4.384;2022-08-25T03:59:59;23.90;94.20
22635;DHT22;11484;50.858;4.384;2022-08-25T04:02:24;24.00;94.00
22635;DHT22;11484;50.858;4.384;2022-08-25T04:04:50;24.00;93.90
22635;DHT22;11484;50.858;4.384;2022-08-25T04:07:18;24.10;93.70
22635;DHT22;11484;50.858;4.384;2022-08-25T04:09:44;24.00;93.10
22635;DHT22;11484;50.858;4.384;2022-08-25T04:12:10;24.00;93.40
22635;DHT22;11484;50.858;4.384;2022-08-25T04:14:36;24.10;92.40
22635;DHT22;11484;50.858;4.384;2022-08-25T04:17:02;24.00;92.10
22635;DHT22;11484;50.858;4.384;2022-08-25T04:19:28;24.00;91.80
22635;DHT22;11484;50.858;4.384;2022-08-25T04:21:55;24.10;91.60
22635;DHT22;11484;50.858;4.384;2022-08-25T04:24:21;24.10;91.50
22635;DHT22;11484;50.858;4.384;2022-08-25T04:26:48;24.10;91.40
22635;DHT22;11484;50.858;4.384;2022-08-25T04:29:18;24.10;91.40
22635;DHT22;11484;50.858;4.384;2022-08-25T04:31:45;24.10;91.30
22635;DHT22;11484;50.858;4.384;2022-08-25T04:34:12;24.10;91.30
22635;DHT22;11484;50.858;4.384;2022-08-25T04:36:39;24.00;91.50
22635;DHT22;11484;50.858;4.384;2022-08-25T04:39:06;24.00;91.50
22635;DHT22;11484;50.858;4.384;2022-08-25T04:41:32;24.00;91.40
22635;DHT22;11484;50.858;4.384;2022-08-25T04:44:00;24.00;91.40
22635;DHT22;11484;50.858;4.384;2022-08-25T04:46:29;23.90;91.20
22635;DHT22;11484;50.858;4.384;2022-08-25T04:48:57;24.00;91.10
22635;DHT22;11484;50.858;4.384;2022-08-25T04:51:35;24.00;91.00
22635;DHT22;11484;50.858;4.384;2022-08-25T04:54:04;24.10;90.80
22635;DHT22;11484;50.858;4.384;2022-08-25T04:56:31;24.10;90.50
22635;DHT22;11484;50.858;4.384;2022-08-25T04:59:17;24.10;90.30
22635;DHT22;11484;50.858;4.384;2022-08-25T05:01:44;24.20;89.90
22635;DHT22;11484;50.858;4.384;2022-08-25T05:04:12;24.20;89.90
22635;DHT22;11484;50.858;4.384;2022-08-25T05:06:39;24.20;89.60
22635;DHT22;11484;50.858;4.384;2022-08-25T05:09:06;24.10;89.50
22635;DHT22;11484;50.858;4.384;2022-08-25T05:11:33;24.10;89.60
22635;DHT22;11484;50.858;4.384;2022-08-25T05:14:00;24.10;89.60
22635;DHT22;11484;50.858;4.384;2022-08-25T05:16:26;24.20;90.00
22635;DHT22;11484;50.858;4.384;2022-08-25T05:18:53;24.30;88.20
22635;DHT22;11484;50.858;4.384;2022-08-25T05:21:24;24.30;87.40
22635;DHT22;11484;50.858;4.384;2022-08-25T05:23:54;24.40;86.90
22635;DHT22;11484;50.858;4.384;2022-08-25T05:26:22;24.40;86.10
22635;DHT22;11484;50.858;4.384;2022-08-25T05:28:52;24.40;85.00
22635;DHT22;11484;50.858;4.384;2022-08-25T05:31:20;24.50;83.80
22635;DHT22;11484;50.858;4.384;2022-08-25T05:33:46;24.50;82.90
22635;DHT22;11484;50.858;4.384;2022-08-25T05:36:14;24.40;82.70
22635;DHT22;11484;50.858;4.384;2022-08-25T05:38:41;24.40;82.40
22635;DHT22;11484;50.858;4.384;2022-08-25T05:41:10;24.40;82.50
22635;DHT22;11484;50.858;4.384;2022-08-25T05:43:38;24.40;82.40
22635;DHT22;11484;50.858;4.384;2022-08-25T05:46:05;24.50;82.40
22635;DHT22;11484;50.858;4.384;2022-08-25T05:48:31;24.50;82.70
22635;DHT22;11484;50.858;4.384;2022-08-25T05:50:59;24.70;82.50
22635;DHT22;11484;50.858;4.384;2022-08-25T05:53:27;24.90;81.70
22635;DHT22;11484;50.858;4.384;2022-08-25T05:55:55;25.00;81.30
22635;DHT22;11484;50.858;4.384;2022-08-25T05:58:24;25.20;80.60
22635;DHT22;11484;50.858;4.384;2022-08-25T06:00:51;25.30;79.80
22635;DHT22;11484;50.858;4.384;2022-08-25T06:03:18;25.50;79.50
22635;DHT22;11484;50.858;4.384;2022-08-25T06:05:44;25.60;78.50
22635;DHT22;11484;50.858;4.384;2022-08-25T06:08:11;25.70;76.90
22635;DHT22;11484;50.858;4.384;2022-08-25T06:10:37;25.70;76.80
22635;DHT22;11484;50.858;4.384;2022-08-25T06:13:03;25.80;76.80
22635;DHT22;11484;50.858;4.384;2022-08-25T06:15:30;26.00;76.70
22635;DHT22;11484;50.858;4.384;2022-08-25T06:17:56;26.20;76.50
22635;DHT22;11484;50.858;4.384;2022-08-25T06:20:32;26.30;75.60
22635;DHT22;11484;50.858;4.384;2022-08-25T06:22:59;26.50;75.00
22635;DHT22;11484;50.858;4.384;2022-08-25T06:25:27;26.70;74.60
22635;DHT22;11484;50.858;4.384;2022-08-25T06:27:58;26.90;74.30
22635;DHT22;11484;50.858;4.384;2022-08-25T06:30:24;27.20;74.80
22635;DHT22;11484;50.858;4.384;2022-08-25T06:32:55;27.30;72.80
22635;DHT22;11484;50.858;4.384;2022-08-25T06:35:21;27.30;71.50
22635;DHT22;11484;50.858;4.384;2022-08-25T06:37:48;27.30;70.80
22635;DHT22;11484;50.858;4.384;2022-08-25T06:40:15;27.40;70.50
22635;DHT22;11484;50.858;4.384;2022-08-25T06:42:41;27.50;70.50
22635;DHT22;11484;50.858;4.384;2022-08-25T06:45:07;27.60;69.40
22635;DHT22;11484;50.858;4.384;2022-08-25T06:47:33;27.90;69.50
22635;DHT22;11484;50.858;4.384;2022-08-25T06:49:59;28.40;68.70
22635;DHT22;11484;50.858;4.384;2022-08-25T06:52:25;28.90;65.60
22635;DHT22;11484;50.858;4.384;2022-08-25T06:54:50;29.30;64.90
22635;DHT22;11484;50.858;4.384;2022-08-25T06:57:17;29.60;63.40
22635;DHT22;11484;50.858;4.384;2022-08-25T06:59:43;29.80;62.40
22635;DHT22;11484;50.858;4.384;2022-08-25T07:02:09;29.90;61.60
22635;DHT22;11484;50.858;4.384;2022-08-25T07:04:36;30.30;61.30
22635;DHT22;11484;50.858;4.384;2022-08-25T07:07:02;30.70;61.30
22635;DHT22;11484;50.858;4.384;2022-08-25T07:09:28;31.20;59.40
22635;DHT22;11484;50.858;4.384;2022-08-25T07:11:54;31.70;56.70
22635;DHT22;11484;50.858;4.384;2022-08-25T07:14:20;32.10;55.70
22635;DHT22;11484;50.858;4.384;2022-08-25T07:16:46;32.50;55.30
22635;DHT22;11484;50.858;4.384;2022-08-25T07:19:12;32.60;53.40
22635;DHT22;11484;50.858;4.384;2022-08-25T07:21:40;32.60;52.90
22635;DHT22;11484;50.858;4.384;2022-08-25T07:24:09;32.60;52.70
22635;DHT22;11484;50.858;4.384;2022-08-25T07:26:36;32.70;52.40
22635;DHT22;11484;50.858;4.384;2022-08-25T07:29:11;32.70;52.30
22635;DHT22;11484;50.858;4.384;2022-08-25T07:31:37;32.80;51.90
22635;DHT22;11484;50.858;4.384;2022-08-25T07:34:03;33.00;52.70
22635;DHT22;11484;50.858;4.384;2022-08-25T07:36:48;33.00;52.10
22635;DHT22;11484;50.858;4.384;2022-08-25T07:39:13;32.90;51.30
22635;DHT22;11484;50.858;4.384;2022-08-25T07:41:40;33.30;51.90
22635;DHT22;11484;50.858;4.384;2022-08-25T07:44:07;34.10;50.00
22635;DHT22;11484;50.858;4.384;2022-08-25T07:46:33;34.90;48.50
22635;DHT22;11484;50.858;4.384;2022-08-25T07:48:59;35.40;48.60
22635;DHT22;11484;50.858;4.384;2022-08-25T07:51:25;35.60;46.80
22635;DHT22;11484;50.858;4.384;2022-08-25T07:53:50;35.40;46.80
22635;DHT22;11484;50.858;4.384;2022-08-25T07:56:16;35.30;46.60
22635;DHT22;11484;50.858;4.384;2022-08-25T07:58:43;35.20;46.80
22635;DHT22;11484;50.858;4.384;2022-08-25T08:01:14;34.80;46.40
22635;DHT22;11484;50.858;4.384;2022-08-25T08:03:40;34.90;46.80
22635;DHT22;11484;50.858;4.384;2022-08-25T08:06:08;35.00;47.20
22635;DHT22;11484;50.858;4.384;2022-08-25T08:08:39;35.00;46.40
22635;DHT22;11484;50.858;4.384;2022-08-25T08:11:14;34.90;46.20
22635;DHT22;11484;50.858;4.384;2022-08-25T08:13:41;34.50;47.00
22635;DHT22;11484;50.858;4.384;2022-08-25T08:16:17;34.40;47.20
22635;DHT22;11484;50.858;4.384;2022-08-25T08:18:44;34.80;47.20
22635;DHT22;11484;50.858;4.384;2022-08-25T08:21:16;35.40;46.50
22635;DHT22;11484;50.858;4.384;2022-08-25T08:23:42;36.20;45.90
22635;DHT22;11484;50.858;4.384;2022-08-25T08:26:08;37.00;44.40
22635;DHT22;11484;50.858;4.384;2022-08-25T08:28:34;37.60;43.10
22635;DHT22;11484;50.858;4.384;2022-08-25T08:31:00;37.80;42.10
22635;DHT22;11484;50.858;4.384;2022-08-25T08:33:26;37.20;43.10
22635;DHT22;11484;50.858;4.384;2022-08-25T08:36:01;36.60;42.90
22635;DHT22;11484;50.858;4.384;2022-08-25T08:38:29;36.30;43.60
22635;DHT22;11484;50.858;4.384;2022-08-25T08:52:23;39.10;41.30
22635;DHT22;11484;50.858;4.384;2022-08-25T08:54:59;38.80;39.60
22635;DHT22;11484;50.858;4.384;2022-08-25T08:57:27;38.60;39.90
22635;DHT22;11484;50.858;4.384;2022-08-25T08:59:59;38.90;40.50
22635;DHT22;11484;50.858;4.384;2022-08-25T09:02:32;39.20;39.50
22635;DHT22;11484;50.858;4.384;2022-08-25T09:05:06;39.70;38.90
22635;DHT22;11484;50.858;4.384;2022-08-25T09:07:55;40.20;37.70
22635;DHT22;11484;50.858;4.384;2022-08-25T09:10:24;41.00;36.70
22635;DHT22;11484;50.858;4.384;2022-08-25T09:16:15;41.70;36.70
22635;DHT22;11484;50.858;4.384;2022-08-25T09:25:22;43.10;34.10
22635;DHT22;11484;50.858;4.384;2022-08-25T09:28:18;42.40;34.00
22635;DHT22;11484;50.858;4.384;2022-08-25T09:31:13;42.50;33.10
22635;DHT22;11484;50.858;4.384;2022-08-25T09:33:40;42.50;33.20
22635;DHT22;11484;50.858;4.384;2022-08-25T09:36:06;42.40;33.20
22635;DHT22;11484;50.858;4.384;2022-08-25T09:38:32;42.60;32.60
22635;DHT22;11484;50.858;4.384;2022-08-25T09:40:59;42.50;33.70
22635;DHT22;11484;50.858;4.384;2022-08-25T09:43:33;42.60;32.60
22635;DHT22;11484;50.858;4.384;2022-08-25T09:46:08;42.90;31.80
22635;DHT22;11484;50.858;4.384;2022-08-25T09:48:42;43.10;31.70
22635;DHT22;11484;50.858;4.384;2022-08-25T09:51:31;42.80;31.40
22635;DHT22;11484;50.858;4.384;2022-08-25T09:53:59;42.80;31.60
22635;DHT22;11484;50.858;4.384;2022-08-25T09:56:29;42.70;32.40
22635;DHT22;11484;50.858;4.384;2022-08-25T10:04:32;41.70;32.60
22635;DHT22;11484;50.858;4.384;2022-08-25T10:06:59;41.60;33.10
22635;DHT22;11484;50.858;4.384;2022-08-25T10:10:15;41.50;32.40
22635;DHT22;11484;50.858;4.384;2022-08-25T10:12:19;41.20;32.20
22635;DHT22;11484;50.858;4.384;2022-08-25T10:14:51;40.90;32.20
22635;DHT22;11484;50.858;4.384;2022-08-25T10:20:21;40.30;32.70
22635;DHT22;11484;50.858;4.384;2022-08-25T10:22:50;40.00;33.10
22635;DHT22;11484;50.858;4.384;2022-08-25T10:25:24;39.90;33.00
22635;DHT22;11484;50.858;4.384;2022-08-25T10:36:16;38.60;34.60
22635;DHT22;11484;50.858;4.384;2022-08-25T10:38:54;38.50;34.10
22635;DHT22;11484;50.858;4.384;2022-08-25T10:44:38;38.00;32.90
22635;DHT22;11484;50.858;4.384;2022-08-25T10:47:43;38.00;33.30
22635;DHT22;11484;50.858;4.384;2022-08-25T10:51:26;37.40;34.80
22635;DHT22;11484;50.858;4.384;2022-08-25T10:55:59;36.50;35.30
22635;DHT22;11484;50.858;4.384;2022-08-25T11:07:24;35.70;34.80
22635;DHT22;11484;50.858;4.384;2022-08-25T11:09:54;35.80;35.00
22635;DHT22;11484;50.858;4.384;2022-08-25T11:12:30;35.80;35.50
22635;DHT22;11484;50.858;4.384;2022-08-25T11:14:59;35.70;35.40
22635;DHT22;11484;50.858;4.384;2022-08-25T11:17:35;35.50;34.50
22635;DHT22;11484;50.858;4.384;2022-08-25T11:20:06;35.30;35.20
22635;DHT22;11484;50.858;4.384;2022-08-25T11:23:05;35.20;35.70
22635;DHT22;11484;50.858;4.384;2022-08-25T11:25:44;35.20;35.70
22635;DHT22;11484;50.858;4.384;2022-08-25T11:28:15;35.00;35.90
22635;DHT22;11484;50.858;4.384;2022-08-25T11:30:43;34.90;36.00
22635;DHT22;11484;50.858;4.384;2022-08-25T11:33:15;34.70;36.60
22635;DHT22;11484;50.858;4.384;2022-08-25T11:35:52;34.40;37.40
22635;DHT22;11484;50.858;4.384;2022-08-25T11:52:40;34.10;37.70
22635;DHT22;11484;50.858;4.384;2022-08-25T11:55:25;33.80;38.30
22635;DHT22;11484;50.858;4.384;2022-08-25T11:58:20;33.60;38.40
22635;DHT22;11484;50.858;4.384;2022-08-25T12:00:47;33.50;38.50
22635;DHT22;11484;50.858;4.384;2022-08-25T12:11:53;33.60;39.80
22635;DHT22;11484;50.858;4.384;2022-08-25T12:24:51;34.10;38.60
22635;DHT22;11484;50.858;4.384;2022-08-25T12:30:08;34.00;38.80
22635;DHT22;11484;50.858;4.384;2022-08-25T12:35:31;33.90;39.00
22635;DHT22;11484;50.858;4.384;2022-08-25T12:38:25;34.00;39.30
22635;DHT22;11484;50.858;4.384;2022-08-25T12:41:05;34.20;39.10
22635;DHT22;11484;50.858;4.384;2022-08-25T12:43:34;34.30;38.60
22635;DHT22;11484;50.858;4.384;2022-08-25T12:48:57;34.40;38.10
22635;DHT22;11484;50.858;4.384;2022-08-25T12:54:29;34.30;38.90
22635;DHT22;11484;50.858;4.384;2022-08-25T12:57:21;34.40;38.80
22635;DHT22;11484;50.858;4.384;2022-08-25T12:59:53;34.20;38.30
22635;DHT22;11484;50.858;4.384;2022-08-25T13:10:41;34.10;39.10
22635;DHT22;11484;50.858;4.384;2022-08-25T13:16:24;34.20;38.80
22635;DHT22;11484;50.858;4.384;2022-08-25T13:18:53;34.30;39.20
22635;DHT22;11484;50.858;4.384;2022-08-25T13:21:40;34.40;38.90
22635;DHT22;11484;50.858;4.384;2022-08-25T13:24:28;34.60;39.40
22635;DHT22;11484;50.858;4.384;2022-08-25T13:27:01;34.70;39.00
22635;DHT22;11484;50.858;4.384;2022-08-25T13:29:30;34.70;38.30
22635;DHT22;11484;50.858;4.384;2022-08-25T13:32:02;34.70;38.50
22635;DHT22;11484;50.858;4.384;2022-08-25T13:34:35;34.70;38.70
22635;DHT22;11484;50.858;4.384;2022-08-25T13:37:10;34.90;38.50
22635;DHT22;11484;50.858;4.384;2022-08-25T13:40:20;34.90;38.40
22635;DHT22;11484;50.858;4.384;2022-08-25T13:42:49;35.00;38.10
22635;DHT22;11484;50.858;4.384;2022-08-25T13:45:20;35.00;38.00
22635;DHT22;11484;50.858;4.384;2022-08-25T13:47:47;35.00;37.50
22635;DHT22;11484;50.858;4.384;2022-08-25T13:50:21;34.50;38.30
22635;DHT22;11484;50.858;4.384;2022-08-25T13:53:00;34.40;38.80
22635;DHT22;11484;50.858;4.384;2022-08-25T13:55:47;34.40;38.80
22635;DHT22;11484;50.858;4.384;2022-08-25T13:58:25;34.30;39.20
22635;DHT22;11484;50.858;4.384;2022-08-25T14:01:08;34.20;38.50
22635;DHT22;11484;50.858;4.384;2022-08-25T14:06:41;34.10;39.70
22635;DHT22;11484;50.858;4.384;2022-08-25T14:09:16;34.00;43.40
22635;DHT22;11484;50.858;4.384;2022-08-25T14:11:46;33.90;47.00
22635;DHT22;11484;50.858;4.384;2022-08-25T14:14:30;33.80;47.90
22635;DHT22;11484;50.858;4.384;2022-08-25T14:17:08;33.60;48.40
22635;DHT22;11484;50.858;4.384;2022-08-25T14:19:41;33.40;49.40
22635;DHT22;11484;50.858;4.384;2022-08-25T14:22:10;33.30;49.80
22635;DHT22;11484;50.858;4.384;2022-08-25T14:24:36;33.10;50.30
22635;DHT22;11484;50.858;4.384;2022-08-25T14:27:03;33.00;50.60
22635;DHT22;11484;50.858;4.384;2022-08-25T14:29:29;33.00;50.70
22635;DHT22;11484;50.858;4.384;2022-08-25T14:31:56;32.90;51.10
22635;DHT22;11484;50.858;4.384;2022-08-25T14:34:24;32.90;51.40
22635;DHT22;11484;50.858;4.384;2022-08-25T14:36:51;32.80;50.70
22635;DHT22;11484;50.858;4.384;2022-08-25T14:39:17;32.80;50.60
22635;DHT22;11484;50.858;4.384;2022-08-25T14:41:43;32.80;50.50
22635;DHT22;11484;50.858;4.384;2022-08-25T14:44:11;32.60;49.70
22635;DHT22;11484;50.858;4.384;2022-08-25T14:46:42;32.50;49.30
22635;DHT22;11484;50.858;4.384;2022-08-25T14:49:11;32.50;49.20
22635;DHT22;11484;50.858;4.384;2022-08-25T14:51:39;32.40;48.80
22635;DHT22;11484;50.858;4.384;2022-08-25T14:54:09;32.40;48.80
22635;DHT22;11484;50.858;4.384;2022-08-25T14:56:38;32.30;48.80
22635;DHT22;11484;50.858;4.384;2022-08-25T14:59:04;32.30;48.70
22635;DHT22;11484;50.858;4.384;2022-08-25T15:01:30;32.30;49.00
22635;DHT22;11484;50.858;4.384;2022-08-25T15:04:15;32.20;49.20
22635;DHT22;11484;50.858;4.384;2022-08-25T15:06:43;32.20;49.10
22635;DHT22;11484;50.858;4.384;2022-08-25T15:09:13;32.20;49.30
22635;DHT22;11484;50.858;4.384;2022-08-25T15:11:45;32.30;49.00
22635;DHT22;11484;50.858;4.384;2022-08-25T15:14:13;32.30;49.20
22635;DHT22;11484;50.858;4.384;2022-08-25T15:16:43;32.20;52.20
22635;DHT22;11484;50.858;4.384;2022-08-25T15:19:12;32.10;53.00
22635;DHT22;11484;50.858;4.384;2022-08-25T15:21:43;31.90;53.30
22635;DHT22;11484;50.858;4.384;2022-08-25T15:24:09;31.80;54.40
22635;DHT22;11484;50.858;4.384;2022-08-25T15:26:42;31.70;55.40
22635;DHT22;11484;50.858;4.384;2022-08-25T15:29:08;31.70;55.90
22635;DHT22;11484;50.858;4.384;2022-08-25T15:31:35;31.60;56.70
22635;DHT22;11484;50.858;4.384;2022-08-25T15:34:01;31.60;57.80
22635;DHT22;11484;50.858;4.384;2022-08-25T15:36:26;31.40;58.90
22635;DHT22;11484;50.858;4.384;2022-08-25T15:38:53;31.20;59.80
22635;DHT22;11484;50.858;4.384;2022-08-25T15:41:19;31.00;60.50
22635;DHT22;11484;50.858;4.384;2022-08-25T15:43:46;30.90;61.50
22635;DHT22;11484;50.858;4.384;2022-08-25T15:46:17;30.80;62.40
22635;DHT22;11484;50.858;4.384;2022-08-25T15:48:45;30.70;62.30
22635;DHT22;11484;50.858;4.384;2022-08-25T15:51:11;30.60;62.30
22635;DHT22;11484;50.858;4.384;2022-08-25T15:53:37;30.60;62.70
22635;DHT22;11484;50.858;4.384;2022-08-25T15:56:04;30.50;63.10
22635;DHT22;11484;50.858;4.384;2022-08-25T15:58:31;30.40;63.10
22635;DHT22;11484;50.858;4.384;2022-08-25T16:00:57;30.40;63.00
22635;DHT22;11484;50.858;4.384;2022-08-25T16:03:22;30.30;62.80
22635;DHT22;11484;50.858;4.384;2022-08-25T16:05:49;30.20;63.40
22635;DHT22;11484;50.858;4.384;2022-08-25T16:08:15;30.10;65.00
22635;DHT22;11484;50.858;4.384;2022-08-25T16:10:41;30.10;65.40
22635;DHT22;11484;50.858;4.384;2022-08-25T16:13:08;30.00;66.20
22635;DHT22;11484;50.858;4.384;2022-08-25T16:15:35;29.90;66.50
22635;DHT22;11484;50.858;4.384;2022-08-25T16:18:02;29.90;66.10
22635;DHT22;11484;50.858;4.384;2022-08-25T16:20:29;29.80;66.80
22635;DHT22;11484;50.858;4.384;2022-08-25T16:22:55;29.80;69.00
22635;DHT22;11484;50.858;4.384;2022-08-25T16:25:22;29.70;70.20
22635;DHT22;11484;50.858;4.384;2022-08-25T16:27:48;29.60;71.60
22635;DHT22;11484;50.858;4.384;2022-08-25T16:30:16;29.50;72.50
22635;DHT22;11484;50.858;4.384;2022-08-25T16:32:42;29.50;73.60
22635;DHT22;11484;50.858;4.384;2022-08-25T16:35:08;29.50;73.70
22635;DHT22;11484;50.858;4.384;2022-08-25T16:37:34;29.60;74.20
22635;DHT22;11484;50.858;4.384;2022-08-25T16:40:03;29.50;74.80
22635;DHT22;11484;50.858;4.384;2022-08-25T16:42:29;29.50;75.50
22635;DHT22;11484;50.858;4.384;2022-08-25T16:44:55;29.50;76.20
22635;DHT22;11484;50.858;4.384;2022-08-25T16:47:21;29.50;76.60
22635;DHT22;11484;50.858;4.384;2022-08-25T16:49:47;29.40;78.00
22635;DHT22;11484;50.858;4.384;2022-08-25T16:52:13;29.30;79.00
22635;DHT22;11484;50.858;4.384;2022-08-25T16:54:58;29.10;77.70
22635;DHT22;11484;50.858;4.384;2022-08-25T16:57:45;28.90;80.80
22635;DHT22;11484;50.858;4.384;2022-08-25T17:00:13;28.80;82.90
22635;DHT22;11484;50.858;4.384;2022-08-25T17:02:40;28.60;85.20
22635;DHT22;11484;50.858;4.384;2022-08-25T17:05:07;28.60;87.80
22635;DHT22;11484;50.858;4.384;2022-08-25T17:07:33;28.40;89.10
22635;DHT22;11484;50.858;4.384;2022-08-25T17:10:00;28.20;87.00
22635;DHT22;11484;50.858;4.384;2022-08-25T17:12:26;28.10;88.60
22635;DHT22;11484;50.858;4.384;2022-08-25T17:14:52;28.00;89.20
22635;DHT22;11484;50.858;4.384;2022-08-25T17:17:18;28.00;90.10
22635;DHT22;11484;50.858;4.384;2022-08-25T17:19:44;28.00;90.70
22635;DHT22;11484;50.858;4.384;2022-08-25T17:22:10;27.90;91.30
22635;DHT22;11484;50.858;4.384;2022-08-25T17:24:46;27.90;91.60
22635;DHT22;11484;50.858;4.384;2022-08-25T17:27:11;27.90;92.20
22635;DHT22;11484;50.858;4.384;2022-08-25T17:29:37;27.90;92.80
22635;DHT22;11484;50.858;4.384;2022-08-25T17:32:05;27.80;93.40
22635;DHT22;11484;50.858;4.384;2022-08-25T17:34:30;27.90;93.60
22635;DHT22;11484;50.858;4.384;2022-08-25T17:36:57;27.80;93.60
22635;DHT22;11484;50.858;4.384;2022-08-25T17:39:24;27.80;94.20
22635;DHT22;11484;50.858;4.384;2022-08-25T17:41:51;27.80;94.20
22635;DHT22;11484;50.858;4.384;2022-08-25T17:44:17;27.70;94.50